Frankfort, Michigan
Current Conditions -  °F | °C
As of 8:54 PM on Wednesday 26 Nov 2014 (Local Time) from KFKS Reporting Station
Overcast Overcast  
Wind Chill: 26°   Ceiling: 2500
Heat Index: 26°   Visibility: 10mi
Dew Point: 25°   Wind: 0mph
Humidity: 96%   Direction: NA
Pressure: 30.14"   Gusts: NA
Location:  44.63°N, 86.23°W
Report Text: KFKS 270154Z AUTO 00000KT 10SM BKN025 OVC032 M03/M04 A3014 RMK AO2 T10311037
Loading
Personal Weather Stations






























Interactive Weather Map New forecast layout! Learn more

10-Day Weather Forecast

Advertisements
Track Severe Weather on mobile